Farmhaven, Mississippi
Current Conditions -  °F | °C
As of 5:54 PM on Sunday 21 Dec 2014 (Local Time) from KJAN Reporting Station
Scattered Clouds Scattered Clouds  
Wind Chill: 51°   Ceiling: Unl
Heat Index: 51°   Visibility: 10mi
Dew Point: 46°   Wind: 5mph
Humidity: 83%   Direction: 100°E
Pressure: 30"   Gusts: NA
Location:  32.6346°N, 89.9822°W
Report Text: KJAN 212354Z 10004KT 10SM SCT250 11/08 A3000 RMK AO2 SLP160 T01060078 10161 20106 58003
Loading
Personal Weather Stations






























Interactive Weather Map New forecast layout! Learn more

10-Day Weather Forecast

Advertisements
Track Severe Weather on mobile